createdAt,value
2023-04-05T00:01:50.154Z,53.07
2023-04-05T00:04:21.198Z,53.30
2023-04-05T00:06:52.862Z,53.41
2023-04-05T00:09:23.114Z,53.54
2023-04-05T00:11:49.638Z,53.65
2023-04-05T00:14:16.150Z,53.97
2023-04-05T00:16:42.844Z,53.81
2023-04-05T00:19:12.316Z,53.86
2023-04-05T00:21:39.682Z,54.15
2023-04-05T00:24:07.486Z,54.20
2023-04-05T00:26:34.092Z,54.02
2023-04-05T00:29:01.113Z,54.25
2023-04-05T00:31:28.781Z,54.33
2023-04-05T00:33:55.581Z,54.20
2023-04-05T00:36:22.733Z,54.61
2023-04-05T00:38:52.230Z,54.75
2023-04-05T00:41:18.859Z,55.17
2023-04-05T00:43:46.279Z,54.99
2023-04-05T00:46:12.867Z,55.21
2023-04-05T00:48:39.606Z,55.37
2023-04-05T00:51:09.620Z,55.51
2023-04-05T00:53:37.462Z,55.32
2023-04-05T00:56:04.761Z,55.62
2023-04-05T00:58:32.027Z,55.70
2023-04-05T01:01:14.702Z,55.53
2023-04-05T01:03:44.809Z,55.47
2023-04-05T01:06:27.538Z,55.64
2023-04-05T01:09:12.762Z,55.86
2023-04-05T01:11:40.322Z,55.81
2023-04-05T01:14:06.802Z,55.71
2023-04-05T01:16:33.313Z,55.97
2023-04-05T01:18:59.884Z,55.97
2023-04-05T01:21:38.117Z,55.70
2023-04-05T01:24:04.679Z,55.49
2023-04-05T01:26:43.890Z,55.63
2023-04-05T01:29:29.412Z,55.90
2023-04-05T01:32:11.574Z,55.85
2023-04-05T01:34:50.131Z,55.77
2023-04-05T01:37:19.924Z,55.71
2023-04-05T01:39:50.818Z,55.86
2023-04-05T01:42:23.528Z,55.91
2023-04-05T01:44:50.685Z,55.74
2023-04-05T01:47:17.314Z,55.79
2023-04-05T01:49:43.922Z,55.79
2023-04-05T01:52:10.484Z,56.20
2023-04-05T01:54:36.955Z,55.79
2023-04-05T01:57:03.593Z,55.98
2023-04-05T01:59:30.628Z,56.15
2023-04-05T02:01:59.324Z,56.11
2023-04-05T02:04:27.633Z,56.06
2023-04-05T02:06:54.184Z,56.19
2023-04-05T02:09:20.845Z,56.21
2023-04-05T02:11:47.347Z,55.97
2023-04-05T02:14:14.383Z,56.09
2023-04-05T02:16:41.581Z,56.24
2023-04-05T02:19:08.353Z,56.15
2023-04-05T02:21:36.857Z,56.32
2023-04-05T02:24:03.827Z,56.34
2023-04-05T02:26:30.753Z,56.22
2023-04-05T02:28:57.573Z,56.46
2023-04-05T02:31:24.158Z,56.21
2023-04-05T02:33:51.250Z,56.29
2023-04-05T02:36:17.712Z,56.40
2023-04-05T02:38:45.305Z,56.41
2023-04-05T02:41:12.020Z,56.47
2023-04-05T02:43:38.917Z,56.49
2023-04-05T02:46:05.637Z,56.61
2023-04-05T02:48:36.566Z,56.78
2023-04-05T02:51:04.008Z,56.79
2023-04-05T02:53:30.495Z,57.17
2023-04-05T02:56:01.372Z,56.83
2023-04-05T02:58:29.231Z,57.01
2023-04-05T03:00:56.276Z,57.46
2023-04-05T03:03:30.936Z,57.64
2023-04-05T03:06:00.442Z,57.47
2023-04-05T03:08:32.652Z,57.62
2023-04-05T03:11:03.377Z,57.46
2023-04-05T03:13:29.901Z,57.35
2023-04-05T03:15:57.344Z,57.08
2023-04-05T03:18:27.487Z,57.05
2023-04-05T03:20:57.625Z,56.98
2023-04-05T03:23:28.172Z,57.06
2023-04-05T03:25:56.264Z,56.48
2023-04-05T03:28:26.530Z,56.57
2023-04-05T03:30:59.024Z,56.48
2023-04-05T03:33:25.788Z,56.29
2023-04-05T03:35:53.100Z,56.46
2023-04-05T03:38:20.875Z,56.53
2023-04-05T03:41:10.412Z,56.82
2023-04-05T03:43:36.941Z,56.50
2023-04-05T03:46:03.566Z,56.40
2023-04-05T03:48:30.189Z,56.64
2023-04-05T03:50:56.749Z,56.68
2023-04-05T03:53:23.451Z,56.64
2023-04-05T03:55:54.363Z,56.81
2023-04-05T03:58:27.683Z,56.79
2023-04-05T04:00:56.804Z,56.88
2023-04-05T04:03:25.998Z,56.84
2023-04-05T04:05:52.746Z,56.67
2023-04-05T04:08:20.528Z,56.78
2023-04-05T04:10:47.088Z,56.85
2023-04-05T04:13:25.034Z,56.99
2023-04-05T04:16:02.379Z,56.80
2023-04-05T04:18:46.152Z,57.13
2023-04-05T04:21:19.180Z,57.07
2023-04-05T04:24:16.430Z,57.06
2023-04-05T04:27:06.906Z,57.11
2023-04-05T04:30:01.872Z,57.28
2023-04-05T04:32:53.503Z,57.22
2023-04-05T04:35:34.117Z,56.99
2023-04-05T04:38:10.820Z,56.64
2023-04-05T04:41:06.623Z,56.05
2023-04-05T04:43:55.093Z,56.12
2023-04-05T04:46:43.004Z,56.35
2023-04-05T04:49:24.669Z,56.07
2023-04-05T04:51:51.523Z,55.51
2023-04-05T04:54:22.019Z,55.13
2023-04-05T04:56:48.641Z,54.31
2023-04-05T04:59:16.180Z,52.52
2023-04-05T05:01:44.864Z,51.51
2023-04-05T05:04:11.399Z,49.96
2023-04-05T05:06:39.802Z,49.36
2023-04-05T05:09:06.505Z,47.89
2023-04-05T05:11:37.239Z,47.16
2023-04-05T05:14:07.571Z,45.57
2023-04-05T05:16:34.113Z,45.15
2023-04-05T05:19:00.668Z,43.61
2023-04-05T05:21:34.213Z,43.21
2023-04-05T05:24:02.241Z,44.09
2023-04-05T05:26:28.832Z,43.80
2023-04-05T05:28:56.494Z,42.89
2023-04-05T05:31:29.343Z,41.88
2023-04-05T05:33:56.711Z,41.93
2023-04-05T05:36:23.402Z,42.34
2023-04-05T05:38:49.849Z,40.65
2023-04-05T05:41:16.347Z,40.18
2023-04-05T05:43:42.826Z,40.89
2023-04-05T05:46:09.505Z,40.95
2023-04-05T05:48:36.885Z,39.25
2023-04-05T05:51:12.903Z,40.62
2023-04-05T05:53:40.949Z,42.08
2023-04-05T05:56:07.934Z,43.33
2023-04-05T05:58:34.404Z,44.04
2023-04-05T06:01:01.333Z,43.75
2023-04-05T06:03:29.848Z,43.81
2023-04-05T06:05:58.174Z,41.44
2023-04-05T06:08:25.030Z,40.43
2023-04-05T06:10:52.404Z,39.11
2023-04-05T06:13:18.997Z,38.55
2023-04-05T06:15:47.114Z,38.26
2023-04-05T06:18:13.718Z,39.27
2023-04-05T06:20:41.305Z,37.54
2023-04-05T06:23:08.214Z,37.81
2023-04-05T06:25:34.781Z,38.07
2023-04-05T06:28:03.105Z,38.63
2023-04-05T06:30:29.719Z,40.24
2023-04-05T06:32:56.227Z,41.50
2023-04-05T06:35:23.322Z,42.38
2023-04-05T06:37:50.091Z,42.51
2023-04-05T06:40:17.241Z,43.60
2023-04-05T06:42:44.506Z,44.14
2023-04-05T06:45:16.199Z,44.74
2023-04-05T06:47:42.816Z,44.99
2023-04-05T06:50:09.691Z,44.70
2023-04-05T06:52:36.346Z,44.66
2023-04-05T06:55:03.378Z,44.33
2023-04-05T06:57:29.915Z,43.68
2023-04-05T06:59:56.455Z,40.58
2023-04-05T07:02:23.059Z,39.45
2023-04-05T07:04:49.574Z,37.70
2023-04-05T07:07:17.083Z,36.62
2023-04-05T07:09:43.563Z,35.58
2023-04-05T07:12:10.309Z,35.41
2023-04-05T07:14:37.840Z,34.88
2023-04-05T07:17:07.434Z,33.89
2023-04-05T07:19:34.054Z,33.55
2023-04-05T07:22:01.172Z,34.25
2023-04-05T07:24:27.738Z,35.78
2023-04-05T07:26:54.220Z,37.16
2023-04-05T07:29:20.873Z,36.90
2023-04-05T07:31:47.374Z,33.29
2023-04-05T07:34:13.939Z,32.39
2023-04-05T07:36:40.968Z,34.15
2023-04-05T07:39:07.534Z,34.31
2023-04-05T07:41:35.530Z,34.48
2023-04-05T07:44:02.140Z,34.73
2023-04-05T07:46:29.938Z,32.86
2023-04-05T07:48:56.611Z,31.81
2023-04-05T07:51:23.093Z,31.85
2023-04-05T07:53:49.667Z,33.61
2023-04-05T07:56:16.291Z,32.52
2023-04-05T07:58:42.879Z,35.45
2023-04-05T08:01:10.682Z,34.99
2023-04-05T08:03:39.709Z,34.66
2023-04-05T08:06:13.653Z,33.60
2023-04-05T08:08:40.875Z,35.10
2023-04-05T08:11:07.347Z,34.71
2023-04-05T08:13:38.643Z,34.73
2023-04-05T08:16:05.453Z,35.24
2023-04-05T08:18:32.010Z,33.90
2023-04-05T08:20:58.578Z,33.04
2023-04-05T08:23:25.084Z,32.80
2023-04-05T08:25:51.600Z,34.33
2023-04-05T08:28:18.076Z,33.77
2023-04-05T08:30:45.410Z,34.70
2023-04-05T08:33:12.226Z,36.24
2023-04-05T08:35:39.249Z,36.59
2023-04-05T08:38:08.905Z,35.62
2023-04-05T08:40:47.620Z,35.44
2023-04-05T08:43:20.579Z,36.61
2023-04-05T08:45:49.395Z,37.38
2023-04-05T08:48:16.372Z,36.99
2023-04-05T08:50:43.065Z,36.66
2023-04-05T08:53:10.427Z,36.90
2023-04-05T08:55:39.525Z,38.63
2023-04-05T08:58:13.540Z,37.74
2023-04-05T09:00:41.100Z,38.13
2023-04-05T09:03:11.430Z,38.42
2023-04-05T09:05:39.460Z,37.70
2023-04-05T09:08:06.632Z,36.53
2023-04-05T09:10:33.314Z,36.66
2023-04-05T09:13:00.386Z,37.82
2023-04-05T09:15:27.098Z,38.22
2023-04-05T09:17:55.211Z,37.91
2023-04-05T09:20:21.882Z,38.18
2023-04-05T09:22:48.532Z,37.92
2023-04-05T09:25:33.515Z,38.40
2023-04-05T09:28:00.276Z,37.69
2023-04-05T09:30:28.084Z,38.03
2023-04-05T09:32:55.708Z,38.42
2023-04-05T09:35:22.773Z,38.42
2023-04-05T09:37:56.199Z,37.51
2023-04-05T09:40:25.007Z,37.43
2023-04-05T09:42:53.223Z,36.71
2023-04-05T09:45:19.806Z,36.64
2023-04-05T09:47:57.427Z,37.21
2023-04-05T09:50:24.261Z,37.30
2023-04-05T09:53:05.790Z,36.46
2023-04-05T09:55:33.301Z,36.87
2023-04-05T09:58:01.168Z,36.41
2023-04-05T10:00:29.121Z,36.40
2023-04-05T10:02:56.359Z,38.25
2023-04-05T10:05:23.904Z,35.25
2023-04-05T10:07:50.443Z,34.69
2023-04-05T10:10:16.937Z,35.29
2023-04-05T10:12:45.234Z,36.35
2023-04-05T10:15:12.289Z,35.70
2023-04-05T10:17:52.414Z,36.34
2023-04-05T10:20:20.018Z,35.10
2023-04-05T10:22:59.672Z,34.97
2023-04-05T10:25:26.260Z,36.13
2023-04-05T10:28:01.371Z,35.17
2023-04-05T10:30:32.056Z,35.43
2023-04-05T10:32:58.764Z,35.71
2023-04-05T10:35:28.608Z,35.18
2023-04-05T10:38:13.190Z,35.53
2023-04-05T10:40:43.464Z,35.69
2023-04-05T10:43:14.319Z,34.98
2023-04-05T10:45:41.268Z,35.49
2023-04-05T10:48:26.790Z,35.80
2023-04-05T10:50:53.605Z,36.05
2023-04-05T10:53:20.940Z,34.90
2023-04-05T10:55:47.906Z,35.48
2023-04-05T10:58:15.507Z,34.74
2023-04-05T11:00:42.788Z,35.06
2023-04-05T11:03:09.657Z,35.32
2023-04-05T11:05:37.499Z,34.78
2023-04-05T11:08:08.374Z,34.66
2023-04-05T11:10:39.281Z,34.97
2023-04-05T11:13:07.527Z,34.24
2023-04-05T11:15:34.763Z,33.49
2023-04-05T11:18:07.624Z,34.21
2023-04-05T11:20:44.147Z,34.62
2023-04-05T11:23:11.491Z,34.89
2023-04-05T11:25:39.864Z,34.89
2023-04-05T11:28:06.789Z,34.77
2023-04-05T11:30:59.603Z,33.88
2023-04-05T11:33:35.891Z,34.06
2023-04-05T11:36:05.375Z,34.45
2023-04-05T11:38:32.087Z,35.03
2023-04-05T11:41:12.954Z,33.41
2023-04-05T11:43:39.568Z,32.97
2023-04-05T11:46:06.350Z,34.74
2023-04-05T11:48:33.073Z,33.16
2023-04-05T11:51:00.189Z,33.03
2023-04-05T11:53:26.731Z,33.68
2023-04-05T11:55:53.424Z,32.40
2023-04-05T11:58:21.899Z,32.55
2023-04-05T12:00:57.358Z,32.73
2023-04-05T12:03:23.932Z,32.85
2023-04-05T12:05:51.369Z,33.83
2023-04-05T12:08:18.402Z,32.50
2023-04-05T12:10:45.653Z,33.35
2023-04-05T12:13:12.216Z,33.42
2023-04-05T12:15:43.282Z,32.87
2023-04-05T12:18:13.271Z,32.83
2023-04-05T12:20:39.950Z,32.50
2023-04-05T12:23:06.623Z,33.29
2023-04-05T12:25:33.387Z,33.44
2023-04-05T12:28:07.044Z,33.33
2023-04-05T12:30:36.649Z,34.24
2023-04-05T12:33:09.754Z,33.89
2023-04-05T12:35:36.554Z,32.95
2023-04-05T12:38:05.490Z,33.58
2023-04-05T12:40:33.828Z,33.92
2023-04-05T12:43:08.322Z,33.98
2023-04-05T12:45:42.184Z,33.33
2023-04-05T12:48:11.187Z,33.87
2023-04-05T12:50:41.852Z,34.68
2023-04-05T12:53:08.352Z,34.45
2023-04-05T12:55:42.653Z,32.71
2023-04-05T12:58:09.723Z,32.82
2023-04-05T13:00:36.267Z,33.91
2023-04-05T13:03:02.910Z,34.55
2023-04-05T13:05:30.333Z,33.98
2023-04-05T13:07:57.501Z,34.21
2023-04-05T13:10:24.919Z,32.67
2023-04-05T13:12:51.563Z,33.58
2023-04-05T13:15:18.484Z,32.80
2023-04-05T13:17:45.540Z,34.03
2023-04-05T13:20:12.273Z,33.46
2023-04-05T13:22:39.323Z,33.87
2023-04-05T13:25:06.189Z,33.01
2023-04-05T13:27:32.826Z,33.01
2023-04-05T13:29:59.335Z,34.21
2023-04-05T13:32:25.951Z,34.49
2023-04-05T13:34:52.541Z,34.80
2023-04-05T13:37:19.040Z,34.26
2023-04-05T13:39:45.539Z,34.45
2023-04-05T13:42:12.121Z,34.09
2023-04-05T13:44:38.647Z,34.69
2023-04-05T13:47:05.256Z,34.74
2023-04-05T13:49:31.770Z,34.41
2023-04-05T13:51:58.311Z,34.21
2023-04-05T13:54:24.814Z,33.71
2023-04-05T13:56:51.306Z,34.26
2023-04-05T13:59:19.418Z,33.81
2023-04-05T14:01:46.890Z,33.89
2023-04-05T14:04:13.790Z,33.90
2023-04-05T14:06:40.315Z,33.26
2023-04-05T14:09:06.769Z,33.15
2023-04-05T14:11:33.502Z,33.27
2023-04-05T14:14:00.236Z,33.04
2023-04-05T14:16:27.099Z,32.44
2023-04-05T14:18:53.732Z,33.18
2023-04-05T14:21:20.467Z,32.96
2023-04-05T14:23:47.425Z,33.78
2023-04-05T14:26:14.013Z,33.55
2023-04-05T14:28:40.868Z,34.01
2023-04-05T14:31:07.415Z,33.77
2023-04-05T14:33:33.944Z,33.20
2023-04-05T14:36:00.596Z,33.78
2023-04-05T14:38:27.319Z,33.54
2023-04-05T14:40:53.880Z,34.00
2023-04-05T14:43:20.534Z,35.11
2023-04-05T14:45:47.124Z,34.24
2023-04-05T14:48:13.869Z,33.77
2023-04-05T14:50:40.761Z,34.44
2023-04-05T14:53:07.455Z,35.18
2023-04-05T14:55:34.083Z,35.53
2023-04-05T14:58:01.063Z,35.54
2023-04-05T15:00:27.673Z,35.61
2023-04-05T15:02:54.523Z,34.62
2023-04-05T15:05:21.214Z,34.50
2023-04-05T15:07:47.803Z,34.93
2023-04-05T15:10:14.491Z,35.21
2023-04-05T15:12:41.152Z,35.80
2023-04-05T15:15:07.960Z,35.56
2023-04-05T15:17:34.519Z,35.76
2023-04-05T15:20:01.150Z,35.34
2023-04-05T15:22:27.774Z,35.32
2023-04-05T15:24:55.431Z,35.87
2023-04-05T15:27:21.928Z,35.34
2023-04-05T15:29:48.460Z,35.54
2023-04-05T15:32:15.932Z,36.19
2023-04-05T15:34:42.465Z,35.35
2023-04-05T15:37:10.242Z,35.32
2023-04-05T15:39:36.962Z,35.22
2023-04-05T15:42:03.603Z,35.50
2023-04-05T15:44:30.368Z,34.69
2023-04-05T15:46:56.908Z,34.79
2023-04-05T15:49:23.435Z,35.25
2023-04-05T15:51:50.026Z,35.37
2023-04-05T15:54:18.919Z,35.70
2023-04-05T15:56:45.756Z,35.85
2023-04-05T15:59:12.452Z,35.64
2023-04-05T16:01:39.298Z,35.48
2023-04-05T16:04:06.186Z,34.99
2023-04-05T16:06:32.765Z,35.85
2023-04-05T16:09:00.624Z,35.75
2023-04-05T16:11:27.495Z,35.98
2023-04-05T16:13:54.350Z,35.49
2023-04-05T16:16:32.476Z,35.91
2023-04-05T16:19:08.220Z,36.22
2023-04-05T16:21:34.995Z,36.97
2023-04-05T16:24:03.581Z,37.65
2023-04-05T16:26:30.827Z,37.16
2023-04-05T16:28:57.464Z,36.87
2023-04-05T16:31:24.072Z,37.15
2023-04-05T16:33:51.016Z,36.99
2023-04-05T16:36:17.626Z,36.89
2023-04-05T16:38:46.144Z,36.85
2023-04-05T16:41:14.490Z,36.96
2023-04-05T16:43:41.263Z,37.58
2023-04-05T16:46:08.069Z,37.46
2023-04-05T16:48:34.740Z,37.69
2023-04-05T16:51:01.517Z,38.17
2023-04-05T16:53:28.143Z,37.52
2023-04-05T16:55:54.767Z,37.73
2023-04-05T16:58:21.361Z,37.94
2023-04-05T17:00:48.327Z,37.61
2023-04-05T17:03:14.927Z,37.99
2023-04-05T17:05:41.715Z,38.20
2023-04-05T17:08:08.234Z,38.35
2023-04-05T17:10:35.209Z,38.06
2023-04-05T17:13:01.759Z,38.04
2023-04-05T17:19:09.417Z,38.47
2023-04-05T17:21:36.229Z,38.52
2023-04-05T17:24:02.788Z,39.05
2023-04-05T17:26:29.804Z,38.76
2023-04-05T17:28:56.477Z,38.66
2023-04-05T17:31:23.194Z,38.86
2023-04-05T17:33:49.955Z,38.98
2023-04-05T17:36:17.438Z,38.65
2023-04-05T17:38:44.516Z,38.91
2023-04-05T17:41:11.147Z,39.14
2023-04-05T17:43:37.753Z,39.34
2023-04-05T17:46:04.405Z,39.44
2023-04-05T17:48:32.869Z,39.70
2023-04-05T17:51:04.079Z,39.94
2023-04-05T17:53:30.787Z,40.51
2023-04-05T17:55:57.504Z,40.61
2023-04-05T17:58:24.089Z,41.16
2023-04-05T18:00:52.277Z,41.17
2023-04-05T18:03:19.419Z,41.03
2023-04-05T18:05:52.689Z,41.48
2023-04-05T18:08:19.356Z,41.93
2023-04-05T18:10:46.001Z,41.52
2023-04-05T18:13:12.576Z,41.93
2023-04-05T18:15:39.545Z,41.67
2023-04-05T18:18:07.350Z,41.86
2023-04-05T18:20:34.222Z,41.93
2023-04-05T18:23:00.972Z,42.34
2023-04-05T18:25:28.806Z,42.64
2023-04-05T18:27:56.019Z,42.89
2023-04-05T18:30:22.746Z,42.78
2023-04-05T18:32:50.781Z,43.90
2023-04-05T18:35:17.592Z,43.56
2023-04-05T18:37:44.265Z,43.62
2023-04-05T18:40:11.059Z,43.90
2023-04-05T18:42:37.742Z,43.74
2023-04-05T18:45:04.424Z,43.73
2023-04-05T18:47:31.147Z,44.07
2023-04-05T18:49:57.808Z,44.83
2023-04-05T18:52:26.048Z,44.36
2023-04-05T18:54:53.384Z,44.40
2023-04-05T18:57:20.508Z,45.19
2023-04-05T18:59:47.180Z,44.70
2023-04-05T19:02:13.918Z,44.74
2023-04-05T19:04:40.533Z,44.41
2023-04-05T19:07:07.114Z,45.05
2023-04-05T19:09:33.705Z,44.96
2023-04-05T19:12:00.255Z,45.13
2023-04-05T19:14:26.995Z,44.98
2023-04-05T19:16:53.499Z,45.25
2023-04-05T19:19:20.216Z,45.83
2023-04-05T19:21:46.801Z,45.64
2023-04-05T19:24:14.961Z,46.05
2023-04-05T19:26:42.901Z,46.08
2023-04-05T19:29:09.839Z,45.95
2023-04-05T19:31:37.029Z,46.56
2023-04-05T19:34:05.860Z,46.09
2023-04-05T19:36:36.530Z,46.79
2023-04-05T19:39:04.066Z,46.46
2023-04-05T19:41:34.424Z,46.38
2023-04-05T19:44:01.544Z,46.99
2023-04-05T19:46:29.985Z,47.11
2023-04-05T19:49:01.112Z,47.40
2023-04-05T19:51:28.766Z,47.22
2023-04-05T19:53:56.310Z,47.29
2023-04-05T19:56:28.466Z,47.84
2023-04-05T19:59:01.168Z,47.55
2023-04-05T20:01:35.195Z,48.21
2023-04-05T20:04:05.247Z,48.45
2023-04-05T20:06:33.069Z,48.59
2023-04-05T20:09:01.750Z,48.61
2023-04-05T20:11:28.726Z,48.24
2023-04-05T20:13:57.172Z,48.28
2023-04-05T20:16:26.234Z,48.21
2023-04-05T20:18:54.254Z,48.93
2023-04-05T20:21:20.923Z,48.52
2023-04-05T20:23:47.637Z,48.80
2023-04-05T20:26:15.530Z,48.57
2023-04-05T20:28:43.359Z,49.23
2023-04-05T20:31:12.571Z,49.49
2023-04-05T20:33:47.114Z,49.10
2023-04-05T20:36:16.262Z,49.21
2023-04-05T20:38:44.728Z,50.03
2023-04-05T20:41:15.224Z,49.98
2023-04-05T20:43:42.110Z,49.58
2023-04-05T20:46:08.942Z,49.44
2023-04-05T20:48:36.350Z,49.70
2023-04-05T20:51:04.610Z,50.29
2023-04-05T20:53:31.451Z,49.80
2023-04-05T20:56:00.505Z,50.35
2023-04-05T20:58:27.863Z,50.84
2023-04-05T21:00:54.861Z,50.75
2023-04-05T21:03:21.567Z,51.44
2023-04-05T21:05:48.557Z,51.52
2023-04-05T21:08:16.267Z,51.46
2023-04-05T21:10:42.981Z,51.28
2023-04-05T21:13:09.661Z,52.00
2023-04-05T21:15:36.316Z,52.11
2023-04-05T21:18:04.455Z,52.09
2023-04-05T21:20:31.629Z,52.67
2023-04-05T21:22:58.625Z,52.50
2023-04-05T21:25:25.315Z,52.50
2023-04-05T21:27:51.918Z,52.17
2023-04-05T21:30:18.622Z,51.80
2023-04-05T21:32:45.387Z,51.80
2023-04-05T21:35:12.099Z,52.26
2023-04-05T21:37:38.710Z,52.51
2023-04-05T21:40:05.680Z,52.23
2023-04-05T21:42:32.231Z,52.63
2023-04-05T21:44:58.833Z,52.57
2023-04-05T21:47:27.990Z,52.90
2023-04-05T21:49:54.587Z,53.02
2023-04-05T21:52:21.125Z,53.00
2023-04-05T21:54:47.681Z,53.01
2023-04-05T21:57:14.351Z,53.67
2023-04-05T21:59:40.979Z,53.56
2023-04-05T22:02:07.817Z,52.94
2023-04-05T22:04:35.375Z,52.84
2023-04-05T22:07:02.034Z,52.74
2023-04-05T22:09:28.654Z,52.96
2023-04-05T22:11:55.411Z,52.97
2023-04-05T22:14:22.066Z,53.18
2023-04-05T22:16:48.603Z,53.47
2023-04-05T22:19:15.770Z,53.09
2023-04-05T22:21:42.417Z,53.71
2023-04-05T22:24:09.861Z,53.36
2023-04-05T22:26:37.099Z,53.48
2023-04-05T22:29:03.664Z,53.70
2023-04-05T22:31:30.426Z,53.64
2023-04-05T22:33:57.110Z,54.37
2023-04-05T22:36:23.768Z,54.33
2023-04-05T22:38:51.672Z,54.79
2023-04-05T22:41:20.246Z,54.84
2023-04-05T22:43:46.784Z,54.96
2023-04-05T22:46:13.374Z,54.77
2023-04-05T22:48:39.944Z,54.81
2023-04-05T22:51:08.292Z,54.14
2023-04-05T22:53:34.851Z,54.56
2023-04-05T22:56:01.567Z,54.57
2023-04-05T22:58:32.474Z,54.95
2023-04-05T23:00:59.111Z,54.91
2023-04-05T23:03:26.194Z,55.02
2023-04-05T23:05:52.773Z,54.90
2023-04-05T23:08:19.347Z,54.89
2023-04-05T23:10:46.402Z,55.28
2023-04-05T23:13:13.073Z,55.48
2023-04-05T23:15:39.632Z,56.31
2023-04-05T23:18:06.421Z,56.11
2023-04-05T23:20:33.044Z,55.82
2023-04-05T23:23:00.334Z,56.46
2023-04-05T23:25:26.900Z,56.21
2023-04-05T23:27:56.199Z,56.24
2023-04-05T23:30:22.791Z,56.49
2023-04-05T23:32:50.079Z,56.38
2023-04-05T23:35:17.076Z,56.12
2023-04-05T23:37:43.600Z,56.08
2023-04-05T23:40:10.713Z,55.95
2023-04-05T23:42:37.320Z,55.69
2023-04-05T23:45:07.348Z,55.57
2023-04-05T23:47:35.828Z,56.24
2023-04-05T23:50:02.412Z,55.85
2023-04-05T23:52:29.284Z,56.35
2023-04-05T23:54:56.200Z,56.67
2023-04-05T23:57:22.951Z,55.92
2023-04-05T23:59:50.405Z,56.67
